createdAt,value
2023-04-26T00:01:58.880Z,4.00
2023-04-26T00:04:26.032Z,3.70
2023-04-26T00:06:52.918Z,4.40
2023-04-26T00:09:19.747Z,4.10
2023-04-26T00:11:46.798Z,3.90
2023-04-26T00:14:13.856Z,4.00
2023-04-26T00:16:40.660Z,4.00
2023-04-26T00:19:07.483Z,4.90
2023-04-26T00:21:34.145Z,4.40
2023-04-26T00:24:00.851Z,4.50
2023-04-26T00:26:27.534Z,3.90
2023-04-26T00:28:54.772Z,4.50
2023-04-26T00:31:21.811Z,4.30
2023-04-26T00:33:48.773Z,4.10
2023-04-26T00:36:19.269Z,4.00
2023-04-26T00:38:46.927Z,5.30
2023-04-26T00:41:14.348Z,4.10
2023-04-26T00:43:41.306Z,4.20
2023-04-26T00:46:10.367Z,3.90
2023-04-26T00:48:38.147Z,4.20
2023-04-26T00:51:06.985Z,4.10
2023-04-26T00:53:35.491Z,3.70
2023-04-26T00:56:03.511Z,4.00
2023-04-26T00:58:30.756Z,3.90
2023-04-26T01:00:57.478Z,4.00
2023-04-26T01:03:25.228Z,3.90
2023-04-26T01:05:53.288Z,4.50
2023-04-26T01:08:21.893Z,4.00
2023-04-26T01:10:50.851Z,4.20
2023-04-26T01:13:17.740Z,4.50
2023-04-26T01:15:48.331Z,4.10
2023-04-26T01:18:15.439Z,3.90
2023-04-26T01:20:43.128Z,4.40
2023-04-26T01:23:11.801Z,4.20
2023-04-26T01:25:39.221Z,3.50
2023-04-26T01:28:06.160Z,3.40
2023-04-26T01:30:33.159Z,4.40
2023-04-26T01:33:03.126Z,3.90
2023-04-26T01:35:30.110Z,4.50
2023-04-26T01:37:56.739Z,4.50
2023-04-26T01:40:23.382Z,4.60
2023-04-26T01:42:50.090Z,3.80
2023-04-26T01:45:17.549Z,4.70
2023-04-26T01:48:02.871Z,4.30
2023-04-26T01:50:31.948Z,4.70
2023-04-26T01:52:58.615Z,4.10
2023-04-26T01:55:25.316Z,4.70
2023-04-26T01:57:52.003Z,4.10
2023-04-26T02:00:19.357Z,3.80
2023-04-26T02:02:49.273Z,3.70
2023-04-26T02:05:16.243Z,4.60
2023-04-26T02:07:42.908Z,5.00
2023-04-26T02:10:09.745Z,4.50
2023-04-26T02:12:36.530Z,4.20
2023-04-26T02:15:03.546Z,4.90
2023-04-26T02:17:30.837Z,4.30
2023-04-26T02:19:58.498Z,4.00
2023-04-26T02:22:25.425Z,3.90
2023-04-26T02:24:53.088Z,5.50
2023-04-26T02:27:20.232Z,4.90
2023-04-26T02:29:47.410Z,5.60
2023-04-26T02:32:14.702Z,5.20
2023-04-26T02:34:43.143Z,5.20
2023-04-26T02:37:10.097Z,5.40
2023-04-26T02:39:36.805Z,5.50
2023-04-26T02:42:03.871Z,4.60
2023-04-26T02:44:31.152Z,5.30
2023-04-26T02:46:58.040Z,5.20
2023-04-26T02:49:24.922Z,5.70
2023-04-26T02:51:51.992Z,5.50
2023-04-26T02:54:18.957Z,6.20
2023-04-26T02:56:45.644Z,5.40
2023-04-26T02:59:12.364Z,4.80
2023-04-26T03:01:39.092Z,5.50
2023-04-26T03:04:06.658Z,5.30
2023-04-26T03:06:34.504Z,5.30
2023-04-26T03:09:01.445Z,5.60
2023-04-26T03:11:28.069Z,6.30
2023-04-26T03:13:54.706Z,5.50
2023-04-26T03:16:23.702Z,6.00
2023-04-26T03:18:51.102Z,5.50
2023-04-26T03:21:18.155Z,5.20
2023-04-26T03:23:45.071Z,5.80
2023-04-26T03:26:12.003Z,5.10
2023-04-26T03:28:38.883Z,4.80
2023-04-26T03:31:05.595Z,5.40
2023-04-26T03:33:32.250Z,4.70
2023-04-26T03:35:58.985Z,5.20
2023-04-26T03:38:26.134Z,6.10
2023-04-26T03:40:52.830Z,5.30
2023-04-26T03:43:19.454Z,5.40
2023-04-26T03:45:49.493Z,5.60
2023-04-26T03:48:17.269Z,5.40
2023-04-26T03:50:46.146Z,5.00
2023-04-26T03:53:14.645Z,5.00
2023-04-26T03:55:42.093Z,5.10
2023-04-26T03:58:09.616Z,4.50
2023-04-26T04:00:41.238Z,4.10
2023-04-26T04:03:08.596Z,3.60
2023-04-26T04:05:35.885Z,4.20
2023-04-26T04:08:03.810Z,4.20
2023-04-26T04:10:30.943Z,3.70
2023-04-26T04:12:57.607Z,4.10
2023-04-26T04:15:24.680Z,3.90
2023-04-26T04:17:51.410Z,3.30
2023-04-26T04:20:18.448Z,3.80
2023-04-26T04:22:45.263Z,3.40
2023-04-26T04:25:12.165Z,3.80
2023-04-26T04:27:42.671Z,3.60
2023-04-26T04:30:10.460Z,4.10
2023-04-26T04:32:38.095Z,3.50
2023-04-26T04:37:34.966Z,3.10
2023-04-26T04:40:02.464Z,3.20
2023-04-26T04:42:32.287Z,3.20
2023-04-26T04:44:59.863Z,3.40
2023-04-26T04:47:27.698Z,3.20
2023-04-26T04:49:54.820Z,3.00
2023-04-26T04:52:21.965Z,3.20
2023-04-26T04:54:48.897Z,3.50
2023-04-26T04:57:16.797Z,3.50
2023-04-26T04:59:44.898Z,3.30
2023-04-26T05:02:11.609Z,4.10
2023-04-26T05:04:38.646Z,3.60
2023-04-26T05:07:09.235Z,3.10
2023-04-26T05:09:37.110Z,3.40
2023-04-26T05:12:05.240Z,3.40
2023-04-26T05:14:31.997Z,3.10
2023-04-26T05:16:58.820Z,3.00
2023-04-26T05:19:26.135Z,3.60
2023-04-26T05:21:53.420Z,3.70
2023-04-26T05:24:20.126Z,3.40
2023-04-26T05:26:47.543Z,3.30
2023-04-26T05:29:41.817Z,3.30
2023-04-26T05:32:27.224Z,3.50
2023-04-26T05:35:23.163Z,3.40
2023-04-26T05:37:49.974Z,3.70
2023-04-26T05:40:18.374Z,4.00
2023-04-26T05:42:45.190Z,5.40
2023-04-26T05:45:12.385Z,4.20
2023-04-26T05:50:09.180Z,2.70
2023-04-26T05:52:35.958Z,3.80
2023-04-26T05:55:04.319Z,3.20
2023-04-26T05:59:57.990Z,3.90
2023-04-26T06:02:26.063Z,3.70
2023-04-26T06:04:54.274Z,3.50
2023-04-26T06:07:21.330Z,3.30
2023-04-26T06:09:48.567Z,3.60
2023-04-26T06:12:16.700Z,3.90
2023-04-26T06:14:44.284Z,3.40
2023-04-26T06:17:15.063Z,3.70
2023-04-26T06:19:42.841Z,4.20
2023-04-26T06:22:09.598Z,4.40
2023-04-26T06:24:36.268Z,4.00
2023-04-26T06:27:02.917Z,4.70
2023-04-26T06:29:33.151Z,4.00
2023-04-26T06:31:59.910Z,4.60
2023-04-26T06:34:27.240Z,4.00
2023-04-26T06:36:54.039Z,4.10
2023-04-26T06:39:22.365Z,4.80
2023-04-26T06:41:50.465Z,4.60
2023-04-26T06:44:25.768Z,4.20
2023-04-26T06:46:55.672Z,3.80
2023-04-26T06:49:23.309Z,3.90
2023-04-26T06:51:52.753Z,5.40
2023-04-26T06:54:19.994Z,5.20
2023-04-26T06:56:46.756Z,4.50
2023-04-26T06:59:13.412Z,4.30
2023-04-26T07:01:41.173Z,4.30
2023-04-26T07:04:10.649Z,4.60
2023-04-26T07:06:39.123Z,4.40
2023-04-26T07:09:05.731Z,4.90
2023-04-26T07:11:32.458Z,4.70
2023-04-26T07:13:59.139Z,5.50
2023-04-26T07:16:27.379Z,4.30
2023-04-26T07:18:58.059Z,4.90
2023-04-26T07:21:26.799Z,4.30
2023-04-26T07:23:58.043Z,4.50
2023-04-26T07:26:26.693Z,4.80
2023-04-26T07:28:54.000Z,4.60
2023-04-26T07:31:21.548Z,5.10
2023-04-26T07:33:48.582Z,4.70
2023-04-26T07:36:15.332Z,4.70
2023-04-26T07:38:42.493Z,4.70
2023-04-26T07:41:09.208Z,5.00
2023-04-26T07:43:36.065Z,4.50
2023-04-26T07:46:02.794Z,4.90
2023-04-26T07:48:29.546Z,4.70
2023-04-26T07:50:56.711Z,5.10
2023-04-26T07:53:23.470Z,4.10
2023-04-26T07:55:54.777Z,4.10
2023-04-26T07:58:21.648Z,4.10
2023-04-26T08:00:48.380Z,3.80
2023-04-26T08:03:17.887Z,4.40
2023-04-26T08:05:45.643Z,4.20
2023-04-26T08:08:12.785Z,4.40
2023-04-26T08:10:42.820Z,4.70
2023-04-26T08:13:09.453Z,5.10
2023-04-26T08:15:36.172Z,4.50
2023-04-26T08:18:02.955Z,4.00
2023-04-26T08:20:29.663Z,4.10
2023-04-26T08:22:57.111Z,4.00
2023-04-26T08:25:24.688Z,4.40
2023-04-26T08:27:52.523Z,4.20
2023-04-26T08:30:19.630Z,3.90
2023-04-26T08:32:47.060Z,4.10
2023-04-26T08:35:13.846Z,4.10
2023-04-26T08:37:40.858Z,3.80
2023-04-26T08:40:11.734Z,4.40
2023-04-26T08:42:44.352Z,4.30
2023-04-26T08:45:11.697Z,4.10
2023-04-26T08:48:04.591Z,5.10
2023-04-26T08:50:34.612Z,4.90
2023-04-26T08:53:01.908Z,4.30
2023-04-26T08:55:29.549Z,4.20
2023-04-26T08:57:56.979Z,4.30
2023-04-26T09:00:24.217Z,4.10
2023-04-26T09:02:52.923Z,4.30
2023-04-26T09:05:24.822Z,3.90
2023-04-26T09:07:57.505Z,3.30
2023-04-26T09:10:24.379Z,4.20
2023-04-26T09:12:54.643Z,4.20
2023-04-26T09:15:23.764Z,4.10
2023-04-26T09:17:51.943Z,4.50
2023-04-26T09:20:29.159Z,3.90
2023-04-26T09:23:09.932Z,4.00
2023-04-26T09:25:37.630Z,4.20
2023-04-26T09:28:23.333Z,4.70
2023-04-26T09:30:50.505Z,4.10
2023-04-26T09:33:17.308Z,6.30
2023-04-26T09:35:44.723Z,5.30
2023-04-26T09:38:14.290Z,4.80
2023-04-26T09:40:50.114Z,4.80
2023-04-26T09:43:20.706Z,4.50
2023-04-26T09:45:56.227Z,4.70
2023-04-26T09:48:34.981Z,5.10
2023-04-26T09:51:04.366Z,5.10
2023-04-26T09:53:37.422Z,4.70
2023-04-26T09:56:15.678Z,4.60
2023-04-26T09:58:52.493Z,4.20
2023-04-26T10:01:20.208Z,4.70
2023-04-26T10:03:47.711Z,4.30
2023-04-26T10:06:15.810Z,4.40
2023-04-26T10:11:13.919Z,4.30
2023-04-26T10:13:42.973Z,3.70
2023-04-26T10:16:10.248Z,3.60
2023-04-26T10:18:37.608Z,3.20
2023-04-26T10:21:26.265Z,3.80
2023-04-26T10:23:53.537Z,3.20
2023-04-26T10:26:54.984Z,3.80
2023-04-26T10:29:26.223Z,3.40
2023-04-26T10:32:02.207Z,3.50
2023-04-26T10:34:31.300Z,3.40
2023-04-26T10:37:10.078Z,3.20
2023-04-26T10:39:38.674Z,3.80
2023-04-26T10:42:25.650Z,4.00
2023-04-26T10:44:58.660Z,3.60
2023-04-26T10:47:38.893Z,3.60
2023-04-26T10:50:09.166Z,3.80
2023-04-26T10:52:41.105Z,3.40
2023-04-26T10:55:08.489Z,3.20
2023-04-26T10:57:54.285Z,3.60
2023-04-26T11:00:31.691Z,4.20
2023-04-26T11:03:09.594Z,3.70
2023-04-26T11:05:55.408Z,3.20
2023-04-26T11:08:27.546Z,3.60
2023-04-26T11:11:03.431Z,3.60
2023-04-26T11:13:42.711Z,3.40
2023-04-26T11:16:15.237Z,3.30
2023-04-26T11:18:45.064Z,3.60
2023-04-26T11:21:17.395Z,3.30
2023-04-26T11:23:54.239Z,3.60
2023-04-26T11:26:21.121Z,4.70
2023-04-26T11:28:49.336Z,4.50
2023-04-26T11:31:19.352Z,4.90
2023-04-26T11:33:49.196Z,4.00
2023-04-26T11:36:17.653Z,4.10
2023-04-26T11:38:44.363Z,3.90
2023-04-26T11:41:11.451Z,4.10
2023-04-26T11:43:39.912Z,3.60
2023-04-26T11:46:10.714Z,3.60
2023-04-26T11:48:39.045Z,4.00
2023-04-26T11:51:08.187Z,3.50
2023-04-26T11:53:43.214Z,2.60
2023-04-26T11:56:23.023Z,3.00
2023-04-26T11:58:52.399Z,2.80
2023-04-26T12:01:27.441Z,3.10
2023-04-26T12:03:57.492Z,3.40
2023-04-26T12:06:41.678Z,3.50
2023-04-26T12:09:09.374Z,3.50
2023-04-26T12:11:35.967Z,3.00
2023-04-26T12:14:03.096Z,3.50
2023-04-26T12:16:29.748Z,3.00
2023-04-26T12:18:57.122Z,3.20
2023-04-26T12:21:28.192Z,3.60
2023-04-26T12:23:56.967Z,3.40
2023-04-26T12:26:43.580Z,3.40
2023-04-26T12:29:10.612Z,3.40
2023-04-26T12:31:37.549Z,3.70
2023-04-26T12:34:04.290Z,3.90
2023-04-26T12:36:31.668Z,4.30
2023-04-26T12:38:58.308Z,3.70
2023-04-26T12:41:24.946Z,3.80
2023-04-26T12:43:51.512Z,3.60
2023-04-26T12:46:18.373Z,3.90
2023-04-26T12:48:45.029Z,3.40
2023-04-26T12:51:11.602Z,3.80
2023-04-26T12:53:38.183Z,3.40
2023-04-26T12:56:05.714Z,3.00
2023-04-26T12:58:32.354Z,3.40
2023-04-26T13:00:58.961Z,3.40
2023-04-26T13:03:25.818Z,3.60
2023-04-26T13:05:52.633Z,3.60
2023-04-26T13:08:21.745Z,3.80
2023-04-26T13:10:48.328Z,4.20
2023-04-26T13:13:15.012Z,3.50
2023-04-26T13:15:41.788Z,3.60
2023-04-26T13:18:08.677Z,4.40
2023-04-26T13:20:36.165Z,4.20
2023-04-26T13:23:03.100Z,5.50
2023-04-26T13:25:30.061Z,4.30
2023-04-26T13:27:56.628Z,5.70
2023-04-26T13:30:23.244Z,5.80
2023-04-26T13:32:50.086Z,6.40
2023-04-26T13:35:17.043Z,4.00
2023-04-26T13:37:43.654Z,4.60
2023-04-26T13:40:11.404Z,4.30
2023-04-26T13:42:39.351Z,4.00
2023-04-26T13:47:36.884Z,3.90
2023-04-26T13:50:04.546Z,3.40
2023-04-26T13:52:31.209Z,3.20
2023-04-26T13:54:57.911Z,4.50
2023-04-26T13:57:24.603Z,3.60
2023-04-26T13:59:51.321Z,3.60
2023-04-26T14:02:18.206Z,4.90
2023-04-26T14:04:45.449Z,4.70
2023-04-26T14:07:12.218Z,3.90
2023-04-26T14:09:38.904Z,3.50
2023-04-26T14:12:08.929Z,4.20
2023-04-26T14:14:37.161Z,3.80
2023-04-26T14:17:03.951Z,4.00
2023-04-26T14:19:31.336Z,4.20
2023-04-26T14:21:57.989Z,4.00
2023-04-26T14:24:24.733Z,3.80
2023-04-26T14:26:51.564Z,4.00
2023-04-26T14:29:18.178Z,3.90
2023-04-26T14:31:45.388Z,4.10
2023-04-26T14:34:13.440Z,4.30
2023-04-26T14:39:07.301Z,3.30
2023-04-26T14:41:33.921Z,4.30
2023-04-26T14:44:00.787Z,3.70
2023-04-26T14:46:28.018Z,4.60
2023-04-26T14:48:55.500Z,3.50
2023-04-26T14:51:23.005Z,3.00
2023-04-26T14:53:49.586Z,3.50
2023-04-26T14:56:16.355Z,3.40
2023-04-26T14:58:42.957Z,3.10
2023-04-26T15:01:10.423Z,3.80
2023-04-26T15:03:37.444Z,3.60
2023-04-26T15:06:04.396Z,3.20
2023-04-26T15:08:31.554Z,3.30
2023-04-26T15:10:58.134Z,2.90
2023-04-26T15:13:24.723Z,3.50
2023-04-26T15:15:51.331Z,4.20
2023-04-26T15:18:18.628Z,3.60
2023-04-26T15:20:45.477Z,3.40
2023-04-26T15:23:12.110Z,3.40
2023-04-26T15:25:38.773Z,3.10
2023-04-26T15:28:05.788Z,3.90
2023-04-26T15:30:32.520Z,3.50
2023-04-26T15:33:00.318Z,3.40
2023-04-26T15:37:54.154Z,3.10
2023-04-26T15:40:27.696Z,3.10
2023-04-26T15:42:54.606Z,3.40
2023-04-26T15:45:21.277Z,3.20
2023-04-26T15:47:47.934Z,4.10
2023-04-26T15:50:14.836Z,3.10
2023-04-26T15:52:42.212Z,3.10
2023-04-26T15:55:09.959Z,3.60
2023-04-26T15:57:37.829Z,3.50
2023-04-26T16:02:35.580Z,2.80
2023-04-26T16:05:02.670Z,3.00
2023-04-26T16:07:29.964Z,3.00
2023-04-26T16:09:56.560Z,2.90
2023-04-26T16:12:23.112Z,3.20
2023-04-26T16:14:51.252Z,2.80
2023-04-26T16:17:17.982Z,3.10
2023-04-26T16:19:44.614Z,2.90
2023-04-26T16:22:11.263Z,3.40
2023-04-26T16:24:37.886Z,3.60
2023-04-26T16:27:04.741Z,2.80
2023-04-26T16:29:31.656Z,3.00
2023-04-26T16:31:58.502Z,2.90
2023-04-26T16:34:26.818Z,3.40
2023-04-26T16:36:53.411Z,3.60
2023-04-26T16:39:20.381Z,3.60
2023-04-26T16:41:46.996Z,4.00
2023-04-26T16:44:13.665Z,3.30
2023-04-26T16:46:43.447Z,4.20
2023-04-26T16:49:10.834Z,3.40
2023-04-26T16:51:38.021Z,3.40
2023-04-26T16:54:05.155Z,3.40
2023-04-26T16:56:32.400Z,3.10
2023-04-26T16:58:59.486Z,3.50
2023-04-26T17:01:26.800Z,3.20
2023-04-26T17:03:54.589Z,3.20
2023-04-26T17:06:21.468Z,2.90
2023-04-26T17:08:48.276Z,3.20
2023-04-26T17:11:16.601Z,3.10
2023-04-26T17:13:44.075Z,3.20
2023-04-26T17:16:11.370Z,3.30
2023-04-26T17:18:38.594Z,3.20
2023-04-26T17:21:07.057Z,4.10
2023-04-26T17:23:34.446Z,3.40
2023-04-26T17:26:01.829Z,3.70
2023-04-26T17:28:29.149Z,5.00
2023-04-26T17:30:55.917Z,4.80
2023-04-26T17:33:23.345Z,4.80
2023-04-26T17:35:50.159Z,7.10
2023-04-26T17:38:17.062Z,6.90
2023-04-26T17:40:43.670Z,7.60
2023-04-26T17:43:11.298Z,8.60
2023-04-26T17:45:37.931Z,6.80
2023-04-26T17:48:05.426Z,5.20
2023-04-26T17:50:32.134Z,5.90
2023-04-26T17:52:58.768Z,3.40
2023-04-26T17:55:25.462Z,3.80
2023-04-26T17:57:52.176Z,3.20
2023-04-26T18:00:19.444Z,3.20
2023-04-26T18:02:46.314Z,3.60
2023-04-26T18:05:13.414Z,3.70
2023-04-26T18:07:40.177Z,3.20
2023-04-26T18:10:08.091Z,3.20
2023-04-26T18:12:36.185Z,3.40
2023-04-26T18:15:02.870Z,3.30
2023-04-26T18:17:29.722Z,3.70
2023-04-26T18:19:56.438Z,3.60
2023-04-26T18:22:23.096Z,3.30
2023-04-26T18:24:49.781Z,3.20
2023-04-26T18:27:16.464Z,3.50
2023-04-26T18:29:43.957Z,3.70
2023-04-26T18:32:10.655Z,3.10
2023-04-26T18:34:37.333Z,3.10
2023-04-26T18:37:04.788Z,2.60
2023-04-26T18:39:31.795Z,3.60
2023-04-26T18:41:58.534Z,3.30
2023-04-26T18:44:25.164Z,3.60
2023-04-26T18:46:55.610Z,3.40
2023-04-26T18:49:23.631Z,3.60
2023-04-26T18:51:50.343Z,3.40
2023-04-26T18:54:17.044Z,4.10
2023-04-26T18:56:44.059Z,3.80
2023-04-26T18:59:11.371Z,3.00
2023-04-26T19:01:38.683Z,3.50
2023-04-26T19:04:05.997Z,3.20
2023-04-26T19:06:33.173Z,3.40
2023-04-26T19:09:00.966Z,3.80
2023-04-26T19:11:27.643Z,3.80
2023-04-26T19:13:54.274Z,3.50
2023-04-26T19:16:24.060Z,3.30
2023-04-26T19:18:51.958Z,4.00
2023-04-26T19:21:18.709Z,3.30
2023-04-26T19:23:46.732Z,3.60
2023-04-26T19:26:13.519Z,3.30
2023-04-26T19:28:40.828Z,3.30
2023-04-26T19:31:07.668Z,3.20
2023-04-26T19:33:34.582Z,3.20
2023-04-26T19:36:01.201Z,3.10
2023-04-26T19:38:28.666Z,3.20
2023-04-26T19:40:55.300Z,3.10
2023-04-26T19:43:21.951Z,3.70
2023-04-26T19:45:48.582Z,3.30
2023-04-26T19:48:15.412Z,3.90
2023-04-26T19:50:46.744Z,3.40
2023-04-26T19:53:15.041Z,3.20
2023-04-26T19:55:42.709Z,3.50
2023-04-26T19:58:11.020Z,4.40
2023-04-26T20:00:38.774Z,4.10
2023-04-26T20:03:06.694Z,3.50
2023-04-26T20:08:01.379Z,3.80
2023-04-26T20:10:34.027Z,4.10
2023-04-26T20:13:01.424Z,3.30
2023-04-26T20:15:29.372Z,4.30
2023-04-26T20:17:57.178Z,3.80
2023-04-26T20:20:24.343Z,3.20
2023-04-26T20:22:51.133Z,3.10
2023-04-26T20:25:19.891Z,3.30
2023-04-26T20:27:47.817Z,3.20
2023-04-26T20:30:15.799Z,3.60
2023-04-26T20:32:43.370Z,3.10
2023-04-26T20:35:10.218Z,3.60
2023-04-26T20:37:36.954Z,3.40
2023-04-26T20:40:04.990Z,3.90
2023-04-26T20:45:01.244Z,3.60
2023-04-26T20:47:28.850Z,3.10
2023-04-26T20:49:55.622Z,3.40
2023-04-26T20:52:22.217Z,3.50
2023-04-26T20:54:49.017Z,2.90
2023-04-26T20:57:16.068Z,3.20
2023-04-26T20:59:42.844Z,3.50
2023-04-26T21:02:10.074Z,2.90
2023-04-26T21:04:38.834Z,2.80
2023-04-26T21:07:05.762Z,3.60
2023-04-26T21:09:32.552Z,3.30
2023-04-26T21:11:59.159Z,3.30
2023-04-26T21:14:26.209Z,3.50
2023-04-26T21:16:52.788Z,3.80
2023-04-26T21:19:20.141Z,2.90
2023-04-26T21:21:46.934Z,3.40
2023-04-26T21:24:13.693Z,3.30
2023-04-26T21:26:40.349Z,3.20
2023-04-26T21:29:07.691Z,3.90
2023-04-26T21:31:35.018Z,3.20
2023-04-26T21:34:01.987Z,3.70
2023-04-26T21:36:28.577Z,2.50
2023-04-26T21:38:55.183Z,2.90
2023-04-26T21:41:23.434Z,2.30
2023-04-26T21:43:50.393Z,2.70
2023-04-26T21:46:17.073Z,3.20
2023-04-26T21:48:44.735Z,3.60
2023-04-26T21:51:11.722Z,3.60
2023-04-26T21:53:38.348Z,3.50
2023-04-26T21:56:06.659Z,3.40
2023-04-26T21:58:33.467Z,3.50
2023-04-26T22:01:12.738Z,3.20
2023-04-26T22:03:39.842Z,3.70
2023-04-26T22:06:09.464Z,3.40
2023-04-26T22:08:36.207Z,3.50
2023-04-26T22:11:03.167Z,3.60
2023-04-26T22:13:31.494Z,5.20
2023-04-26T22:15:58.509Z,3.30
2023-04-26T22:18:26.463Z,3.00
2023-04-26T22:20:53.596Z,2.80
2023-04-26T22:23:20.520Z,3.00
2023-04-26T22:25:47.132Z,4.00
2023-04-26T22:28:13.738Z,3.20
2023-04-26T22:30:40.354Z,3.30
2023-04-26T22:33:07.199Z,3.80
2023-04-26T22:35:34.816Z,4.10
2023-04-26T22:38:01.421Z,4.50
2023-04-26T22:40:28.015Z,3.30
2023-04-26T22:42:54.667Z,4.00
2023-04-26T22:45:21.507Z,3.50
2023-04-26T22:47:48.157Z,3.60
2023-04-26T22:50:14.920Z,3.50
2023-04-26T22:52:41.544Z,3.60
2023-04-26T22:55:09.175Z,3.60
2023-04-26T22:57:35.778Z,3.90
2023-04-26T23:00:02.670Z,4.20
2023-04-26T23:02:29.443Z,4.10
2023-04-26T23:04:56.723Z,4.10
2023-04-26T23:07:23.477Z,4.60
2023-04-26T23:09:50.129Z,3.50
2023-04-26T23:12:19.903Z,3.90
2023-04-26T23:14:47.930Z,3.70
2023-04-26T23:19:42.322Z,3.30
2023-04-26T23:22:09.069Z,3.10
2023-04-26T23:24:35.746Z,3.20
2023-04-26T23:27:02.747Z,3.30
2023-04-26T23:29:29.385Z,3.60
2023-04-26T23:31:56.316Z,3.40
2023-04-26T23:34:23.629Z,4.20
2023-04-26T23:36:50.205Z,5.00
2023-04-26T23:39:16.891Z,4.70
2023-04-26T23:41:43.769Z,4.50
2023-04-26T23:44:10.717Z,4.90
2023-04-26T23:46:37.334Z,4.40
2023-04-26T23:49:04.083Z,4.70
2023-04-26T23:51:32.409Z,3.90
2023-04-26T23:53:59.027Z,3.80
2023-04-26T23:56:25.861Z,3.60
2023-04-26T23:58:52.476Z,5.40
